Time;durP1;ratioP1;P1;durP2;ratioP2;P2;SDS_P1;SDS_P2;PMS_P1;PMS_P2;Temp;Humidity;BMP_temperature;BMP_pressure;BME280_temperature;BME280_humidity;BME280_pressure;Samples;Min_cycle;Max_cycle;Signal;HPM_P1;HPM_P2
2022/07/09 00:00:05;;;;;;;5.80;1.10;;;;;;;;;;5099769;28;20119;-76
2022/07/09 00:02:31;;;;;;;2.80;1.10;;;;;;;;;;5098283;28;20024;-76
2022/07/09 00:04:57;;;;;;;3.47;0.93;;;;;;;;;;5099589;28;20556;-76
2022/07/09 00:07:22;;;;;;;3.17;1.10;;;;;;;;;;5101398;28;20063;-76
2022/07/09 00:09:49;;;;;;;4.95;1.20;;;;;;;;;;5103157;28;20302;-76
2022/07/09 00:12:15;;;;;;;2.45;0.90;;;;;;;;;;5102693;28;20027;-76
2022/07/09 00:14:41;;;;;;;2.70;1.00;;;;;;;;;;5090870;28;20078;-76
2022/07/09 00:17:07;;;;;;;2.60;0.95;;;;;;;;;;5093530;28;20499;-76
2022/07/09 00:19:33;;;;;;;5.35;1.20;;;;;;;;;;5102880;28;20032;-76
2022/07/09 00:21:59;;;;;;;4.50;1.25;;;;;;;;;;5099320;28;20035;-76
2022/07/09 00:24:25;;;;;;;4.10;1.70;;;;;;;;;;5097837;28;20047;-76
2022/07/09 00:26:51;;;;;;;7.18;2.35;;;;;;;;;;5097014;28;20375;-76
2022/07/09 00:29:17;;;;;;;12.13;3.20;;;;;;;;;;5102658;27;20478;-76
2022/07/09 00:31:45;;;;;;;8.80;2.60;;;;;;;;;;5107946;27;20049;-76
2022/07/09 00:34:11;;;;;;;8.43;3.38;;;;;;;;;;5106384;27;20358;-76
2022/07/09 00:36:37;;;;;;;9.93;3.30;;;;;;;;;;5098449;27;20689;-76
2022/07/09 00:39:04;;;;;;;10.93;3.00;;;;;;;;;;5102950;27;20474;-76
2022/07/09 00:41:30;;;;;;;8.13;2.95;;;;;;;;;;5096523;27;20031;-76
2022/07/09 00:43:56;;;;;;;8.07;2.72;;;;;;;;;;5096482;28;20084;-76
2022/07/09 00:46:22;;;;;;;8.70;2.40;;;;;;;;;;5098358;27;20070;-76
2022/07/09 00:48:48;;;;;;;6.38;1.90;;;;;;;;;;5096101;28;20115;-76
2022/07/09 00:51:14;;;;;;;5.70;1.90;;;;;;;;;;5100544;27;20034;-76
2022/07/09 00:53:41;;;;;;;6.57;2.00;;;;;;;;;;5095031;28;20121;-76
2022/07/09 00:56:07;;;;;;;7.15;1.23;;;;;;;;;;5099448;28;20032;-76
2022/07/09 00:58:34;;;;;;;5.05;1.92;;;;;;;;;;5103040;28;20032;-76
2022/07/09 01:01:01;;;;;;;10.80;2.17;;;;;;;;;;5098923;28;20518;-76
2022/07/09 01:03:27;;;;;;;5.68;2.10;;;;;;;;;;5095643;28;20055;-76
2022/07/09 01:05:53;;;;;;;8.43;2.17;;;;;;;;;;5095719;27;20046;-76
2022/07/09 01:08:19;;;;;;;19.88;3.25;;;;;;;;;;5100406;27;20048;-76
2022/07/09 01:10:45;;;;;;;6.63;2.30;;;;;;;;;;5097494;27;20665;-76
2022/07/09 01:13:12;;;;;;;7.38;2.75;;;;;;;;;;5100200;27;20543;-76
2022/07/09 01:15:38;;;;;;;6.95;2.10;;;;;;;;;;5104972;27;20039;-76
2022/07/09 01:18:04;;;;;;;6.50;1.98;;;;;;;;;;5103951;27;20055;-76
2022/07/09 01:20:30;;;;;;;5.38;1.75;;;;;;;;;;5097281;28;20127;-77
2022/07/09 01:22:56;;;;;;;4.90;1.23;;;;;;;;;;5104954;27;20055;-76
2022/07/09 01:25:28;;;;;;;4.90;1.45;;;;;;;;;;5094526;28;20032;-76
2022/07/09 01:27:54;;;;;;;2.17;0.88;;;;;;;;;;5118245;27;20557;-76
2022/07/09 01:30:26;;;;;;;5.03;1.35;;;;;;;;;;5097263;27;20107;-76
2022/07/09 01:32:53;;;;;;;2.90;0.90;;;;;;;;;;5108866;27;20090;-76
2022/07/09 01:35:19;;;;;;;2.53;0.95;;;;;;;;;;5100149;27;20036;-76
2022/07/09 01:37:45;;;;;;;2.38;0.80;;;;;;;;;;5104356;27;20055;-76
2022/07/09 01:40:11;;;;;;;4.90;0.98;;;;;;;;;;5099215;28;20055;-76
2022/07/09 01:42:37;;;;;;;3.08;1.02;;;;;;;;;;5099315;28;20081;-76
2022/07/09 01:45:04;;;;;;;2.15;0.82;;;;;;;;;;5099795;28;20024;-76
2022/07/09 01:47:30;;;;;;;4.88;1.20;;;;;;;;;;5096257;28;20169;-76
2022/07/09 01:49:56;;;;;;;2.22;0.88;;;;;;;;;;5106741;27;20122;-76
2022/07/09 01:52:22;;;;;;;5.93;1.95;;;;;;;;;;5102627;27;20051;-76
2022/07/09 01:54:48;;;;;;;5.80;1.75;;;;;;;;;;5101902;28;20036;-76
2022/07/09 01:57:14;;;;;;;5.22;1.40;;;;;;;;;;5099337;27;20028;-76
2022/07/09 01:59:40;;;;;;;4.65;1.50;;;;;;;;;;5103145;27;20023;-76
2022/07/09 02:02:06;;;;;;;3.17;1.17;;;;;;;;;;5102493;27;20580;-76
2022/07/09 02:04:32;;;;;;;3.75;1.30;;;;;;;;;;5097595;27;20100;-76
2022/07/09 02:06:58;;;;;;;4.50;1.20;;;;;;;;;;5101818;28;20046;-76
2022/07/09 02:09:24;;;;;;;2.97;1.15;;;;;;;;;;5096965;28;20036;-76
2022/07/09 02:11:50;;;;;;;5.68;1.55;;;;;;;;;;5101366;27;20079;-76
2022/07/09 02:14:17;;;;;;;4.18;1.40;;;;;;;;;;5104993;27;20032;-76
2022/07/09 02:16:43;;;;;;;3.88;1.02;;;;;;;;;;5100301;27;20052;-76
2022/07/09 02:19:09;;;;;;;6.68;2.13;;;;;;;;;;5105138;27;20028;-76
2022/07/09 02:21:35;;;;;;;4.20;1.15;;;;;;;;;;5105162;27;20031;-76
2022/07/09 02:24:02;;;;;;;5.28;1.10;;;;;;;;;;5100503;28;20035;-76
2022/07/09 02:26:29;;;;;;;5.13;1.33;;;;;;;;;;5101272;28;20024;-76
2022/07/09 02:28:56;;;;;;;3.58;1.25;;;;;;;;;;5098428;28;20115;-76
2022/07/09 02:31:22;;;;;;;4.47;1.05;;;;;;;;;;5107537;27;20032;-76
2022/07/09 02:33:48;;;;;;;4.85;1.55;;;;;;;;;;5102217;27;20043;-76
2022/07/09 02:36:14;;;;;;;4.30;1.20;;;;;;;;;;5101153;27;20110;-76
2022/07/09 02:38:40;;;;;;;4.47;1.50;;;;;;;;;;5102568;27;20057;-76
2022/07/09 02:41:06;;;;;;;3.22;1.33;;;;;;;;;;5104851;27;20027;-76
2022/07/09 02:43:32;;;;;;;4.88;1.33;;;;;;;;;;5097797;28;20107;-76
2022/07/09 02:45:58;;;;;;;2.65;1.20;;;;;;;;;;5097455;27;20032;-76
2022/07/09 02:48:25;;;;;;;5.07;1.40;;;;;;;;;;5100251;27;20695;-76
2022/07/09 02:50:51;;;;;;;4.47;1.10;;;;;;;;;;5100104;28;20024;-76
2022/07/09 02:53:18;;;;;;;5.13;1.35;;;;;;;;;;5104429;27;20084;-76
2022/07/09 02:55:44;;;;;;;5.65;1.52;;;;;;;;;;5101764;27;20023;-76
2022/07/09 02:58:10;;;;;;;5.05;1.40;;;;;;;;;;5091013;28;20027;-76
2022/07/09 03:00:36;;;;;;;2.90;1.00;;;;;;;;;;5097797;27;20068;-76
2022/07/09 03:03:02;;;;;;;4.20;1.25;;;;;;;;;;5104119;27;20095;-76
2022/07/09 03:05:29;;;;;;;2.47;0.95;;;;;;;;;;5093758;28;20700;-76
2022/07/09 03:07:55;;;;;;;4.07;0.93;;;;;;;;;;5107206;27;20031;-76
2022/07/09 03:10:21;;;;;;;3.15;1.02;;;;;;;;;;5104285;28;20035;-76
2022/07/09 03:12:47;;;;;;;4.72;1.10;;;;;;;;;;5105884;27;20037;-76
2022/07/09 03:15:14;;;;;;;6.47;1.27;;;;;;;;;;5099022;28;20471;-76
2022/07/09 03:17:41;;;;;;;4.10;1.20;;;;;;;;;;5099439;27;20044;-76
2022/07/09 03:20:07;;;;;;;4.97;1.85;;;;;;;;;;5092018;28;20375;-76
2022/07/09 03:22:33;;;;;;;3.40;1.40;;;;;;;;;;5098619;27;20193;-76
2022/07/09 03:24:59;;;;;;;11.13;3.20;;;;;;;;;;5103612;27;20032;-76
2022/07/09 03:27:25;;;;;;;14.77;9.13;;;;;;;;;;5097977;27;20078;-76
2022/07/09 03:29:51;;;;;;;14.38;8.90;;;;;;;;;;5101886;28;20082;-75
2022/07/09 03:32:17;;;;;;;13.52;8.75;;;;;;;;;;5105024;28;20806;-76
2022/07/09 03:34:43;;;;;;;15.70;7.97;;;;;;;;;;5101830;27;20028;-76
2022/07/09 03:37:09;;;;;;;17.08;8.25;;;;;;;;;;5104945;27;20816;-76
2022/07/09 03:39:35;;;;;;;15.68;7.63;;;;;;;;;;5098786;27;20110;-76
2022/07/09 03:42:01;;;;;;;9.43;4.72;;;;;;;;;;5097168;28;20024;-76
2022/07/09 03:44:27;;;;;;;11.25;5.57;;;;;;;;;;5103969;27;20039;-76
2022/07/09 03:46:53;;;;;;;11.68;5.25;;;;;;;;;;5104750;28;20042;-76
2022/07/09 03:49:19;;;;;;;10.65;4.20;;;;;;;;;;5094812;28;20561;-76
2022/07/09 03:51:45;;;;;;;9.95;4.07;;;;;;;;;;5097811;28;20312;-76
2022/07/09 03:54:11;;;;;;;8.38;3.40;;;;;;;;;;5094169;28;20100;-76
2022/07/09 03:56:37;;;;;;;9.38;3.80;;;;;;;;;;5097465;28;20474;-76
2022/07/09 03:59:03;;;;;;;10.60;3.03;;;;;;;;;;5101946;28;20027;-76
2022/07/09 04:01:29;;;;;;;7.28;1.90;;;;;;;;;;5095558;28;20024;-76
2022/07/09 04:03:55;;;;;;;4.70;1.63;;;;;;;;;;5103595;27;20794;-76
2022/07/09 04:06:21;;;;;;;8.30;1.88;;;;;;;;;;5104209;28;20771;-76
2022/07/09 04:08:48;;;;;;;11.43;1.95;;;;;;;;;;5098074;28;20859;-76
2022/07/09 04:11:14;;;;;;;5.72;1.85;;;;;;;;;;5103885;27;20178;-76
2022/07/09 04:13:40;;;;;;;7.75;2.15;;;;;;;;;;5100981;27;20039;-75
2022/07/09 04:16:06;;;;;;;5.20;1.88;;;;;;;;;;5102863;27;20101;-76
2022/07/09 04:18:32;;;;;;;6.63;1.92;;;;;;;;;;5105547;27;20016;-76
2022/07/09 04:20:58;;;;;;;6.25;2.00;;;;;;;;;;5099202;28;20768;-76
2022/07/09 04:23:24;;;;;;;15.57;2.92;;;;;;;;;;5101477;28;20032;-76
2022/07/09 04:25:50;;;;;;;15.13;2.55;;;;;;;;;;5105451;27;20036;-76
2022/07/09 04:28:18;;;;;;;8.07;2.38;;;;;;;;;;5106291;27;20036;-76
2022/07/09 04:30:44;;;;;;;8.75;2.20;;;;;;;;;;5105180;27;20036;-76
2022/07/09 04:33:10;;;;;;;9.00;2.67;;;;;;;;;;5102271;27;20032;-76
2022/07/09 04:35:36;;;;;;;7.53;2.47;;;;;;;;;;5104699;28;20042;-75
2022/07/09 04:38:03;;;;;;;5.43;1.90;;;;;;;;;;5101067;27;20135;-76
2022/07/09 04:40:29;;;;;;;6.63;2.20;;;;;;;;;;5101355;27;20664;-76
2022/07/09 04:42:55;;;;;;;4.22;1.40;;;;;;;;;;5106235;27;20039;-76
2022/07/09 04:45:21;;;;;;;4.85;1.95;;;;;;;;;;5108343;27;20027;-76
2022/07/09 04:47:47;;;;;;;9.05;1.95;;;;;;;;;;5100625;28;20034;-75
2022/07/09 04:50:13;;;;;;;4.55;1.70;;;;;;;;;;5101343;28;20790;-76
2022/07/09 04:52:40;;;;;;;8.45;1.55;;;;;;;;;;5101714;27;20035;-76
2022/07/09 04:55:06;;;;;;;5.55;1.70;;;;;;;;;;5105471;27;20037;-76
2022/07/09 04:57:32;;;;;;;5.00;1.90;;;;;;;;;;5096655;28;20064;-76
2022/07/09 04:59:59;;;;;;;5.90;1.80;;;;;;;;;;5105670;27;20495;-76
2022/07/09 05:02:25;;;;;;;5.65;1.75;;;;;;;;;;5098863;28;20038;-76
2022/07/09 05:04:51;;;;;;;7.43;1.70;;;;;;;;;;5108861;27;20023;-75
2022/07/09 05:07:17;;;;;;;8.50;2.13;;;;;;;;;;5099319;27;20716;-76
2022/07/09 05:09:43;;;;;;;6.90;1.92;;;;;;;;;;5102413;27;20038;-76
2022/07/09 05:12:10;;;;;;;8.32;2.47;;;;;;;;;;5100911;27;20145;-76
2022/07/09 05:14:37;;;;;;;6.88;2.33;;;;;;;;;;5101330;27;20156;-75
2022/07/09 05:17:03;;;;;;;10.13;2.55;;;;;;;;;;5096152;27;20511;-76
2022/07/09 05:19:29;;;;;;;7.63;2.10;;;;;;;;;;5097779;27;20024;-76
2022/07/09 05:21:55;;;;;;;8.82;2.08;;;;;;;;;;5094506;28;20028;-76
2022/07/09 05:24:21;;;;;;;5.45;1.80;;;;;;;;;;5097924;27;20023;-76
2022/07/09 05:26:47;;;;;;;8.20;1.92;;;;;;;;;;5095852;27;20035;-76
2022/07/09 05:29:13;;;;;;;4.53;1.95;;;;;;;;;;5096531;28;20024;-76
2022/07/09 05:31:39;;;;;;;6.15;2.00;;;;;;;;;;5098793;27;20057;-76
2022/07/09 05:34:05;;;;;;;9.70;2.15;;;;;;;;;;5093903;28;20074;-75
2022/07/09 05:36:31;;;;;;;5.15;1.80;;;;;;;;;;5094174;28;20340;-76
2022/07/09 05:38:58;;;;;;;7.75;1.80;;;;;;;;;;5098004;28;20465;-75
2022/07/09 05:41:24;;;;;;;6.00;2.15;;;;;;;;;;5095109;28;20673;-76
2022/07/09 05:43:54;;;;;;;8.85;1.83;;;;;;;;;;5092966;28;20028;-76
2022/07/09 05:46:20;;;;;;;9.13;1.92;;;;;;;;;;5092154;28;20036;-76
2022/07/09 05:48:47;;;;;;;6.47;1.50;;;;;;;;;;5092368;28;20024;-76
2022/07/09 05:51:13;;;;;;;4.57;1.77;;;;;;;;;;5095758;27;20032;-76
2022/07/09 05:53:39;;;;;;;3.00;1.50;;;;;;;;;;5098159;27;20569;-77
2022/07/09 05:56:06;;;;;;;4.57;1.63;;;;;;;;;;5098601;27;20122;-77
2022/07/09 05:58:32;;;;;;;4.35;1.85;;;;;;;;;;5098915;28;20655;-76
2022/07/09 06:00:58;;;;;;;8.43;1.80;;;;;;;;;;5092598;27;20066;-77
2022/07/09 06:03:24;;;;;;;6.75;1.90;;;;;;;;;;5092402;28;20028;-77
2022/07/09 06:05:52;;;;;;;7.32;2.03;;;;;;;;;;5097389;27;20040;-77
2022/07/09 06:08:18;;;;;;;7.13;1.70;;;;;;;;;;5096422;28;20036;-77
2022/07/09 06:10:44;;;;;;;4.45;1.70;;;;;;;;;;5096452;28;20031;-77
2022/07/09 06:13:10;;;;;;;6.47;1.90;;;;;;;;;;5097132;27;20055;-77
2022/07/09 06:15:36;;;;;;;5.32;1.73;;;;;;;;;;5098386;27;20580;-77
2022/07/09 06:18:02;;;;;;;7.18;2.10;;;;;;;;;;5092115;28;20047;-77
2022/07/09 06:20:28;;;;;;;6.82;1.90;;;;;;;;;;5098970;28;20034;-75
2022/07/09 06:22:54;;;;;;;4.55;1.92;;;;;;;;;;5099350;28;20028;-75
2022/07/09 06:25:20;;;;;;;7.72;1.80;;;;;;;;;;5100720;28;20043;-75
2022/07/09 06:27:47;;;;;;;5.30;2.00;;;;;;;;;;5096969;27;20036;-75
2022/07/09 06:30:13;;;;;;;4.72;1.98;;;;;;;;;;5101048;27;20125;-75
2022/07/09 06:32:39;;;;;;;5.10;1.75;;;;;;;;;;5093180;27;20469;-75
2022/07/09 06:35:06;;;;;;;6.13;2.15;;;;;;;;;;5097625;27;20032;-75
2022/07/09 06:37:32;;;;;;;6.13;1.98;;;;;;;;;;5097727;28;20031;-75
2022/07/09 06:39:59;;;;;;;5.35;1.55;;;;;;;;;;5098446;27;20490;-75
2022/07/09 06:42:26;;;;;;;3.75;1.73;;;;;;;;;;5100973;27;20032;-75
2022/07/09 06:44:52;;;;;;;4.80;1.83;;;;;;;;;;5095378;28;20031;-75
2022/07/09 06:47:18;;;;;;;6.57;1.77;;;;;;;;;;5096220;28;20046;-75
2022/07/09 06:49:44;;;;;;;3.63;1.67;;;;;;;;;;5097171;28;20035;-75
2022/07/09 06:52:10;;;;;;;5.03;1.52;;;;;;;;;;5099080;27;20043;-75
2022/07/09 06:54:36;;;;;;;7.38;1.63;;;;;;;;;;5096975;28;20669;-75
2022/07/09 06:57:06;;;;;;;6.60;1.42;;;;;;;;;;5103510;27;20035;-75
2022/07/09 06:59:32;;;;;;;8.90;1.98;;;;;;;;;;5098110;28;20409;-75
2022/07/09 07:01:58;;;;;;;6.97;1.70;;;;;;;;;;5091526;28;20536;-75
2022/07/09 07:04:25;;;;;;;7.07;1.60;;;;;;;;;;5094417;27;20475;-75
2022/07/09 07:06:51;;;;;;;6.32;1.67;;;;;;;;;;5096951;28;20044;-75
2022/07/09 07:09:18;;;;;;;5.97;1.40;;;;;;;;;;5100163;27;20028;-75
2022/07/09 07:11:45;;;;;;;4.22;1.58;;;;;;;;;;5092679;27;20044;-75
2022/07/09 07:14:11;;;;;;;5.97;1.95;;;;;;;;;;5100543;28;20031;-75
2022/07/09 07:16:37;;;;;;;6.15;1.38;;;;;;;;;;5095535;28;20836;-75
2022/07/09 07:19:03;;;;;;;3.85;1.13;;;;;;;;;;5096412;28;20498;-75
2022/07/09 07:21:29;;;;;;;5.18;1.48;;;;;;;;;;5098156;27;20064;-75
2022/07/09 07:23:55;;;;;;;5.00;1.45;;;;;;;;;;5098989;27;20027;-75
2022/07/09 07:26:21;;;;;;;5.60;1.42;;;;;;;;;;5100505;28;20032;-75
2022/07/09 07:28:48;;;;;;;5.65;1.15;;;;;;;;;;5100230;28;21012;-75
2022/07/09 07:31:14;;;;;;;11.07;2.22;;;;;;;;;;5096409;28;20118;-75
2022/07/09 07:33:40;;;;;;;7.95;1.77;;;;;;;;;;5102052;27;20499;-75
2022/07/09 07:36:08;;;;;;;6.18;1.58;;;;;;;;;;5097836;28;20040;-75
2022/07/09 07:38:34;;;;;;;2.95;1.40;;;;;;;;;;5095132;28;20111;-75
2022/07/09 07:41:00;;;;;;;5.45;1.92;;;;;;;;;;5093300;28;20032;-75
2022/07/09 07:43:26;;;;;;;9.77;1.80;;;;;;;;;;5097844;28;20042;-75
2022/07/09 07:45:52;;;;;;;6.22;1.63;;;;;;;;;;5094044;28;20084;-75
2022/07/09 07:48:19;;;;;;;5.18;1.33;;;;;;;;;;5092830;28;20032;-75
2022/07/09 07:50:45;;;;;;;6.03;1.30;;;;;;;;;;5096301;28;20130;-75
2022/07/09 07:53:11;;;;;;;7.15;1.63;;;;;;;;;;5092990;28;20032;-75
2022/07/09 07:55:37;;;;;;;5.03;1.50;;;;;;;;;;5097750;28;20459;-75
2022/07/09 07:58:03;;;;;;;6.50;1.75;;;;;;;;;;5095143;28;20028;-75
2022/07/09 08:00:29;;;;;;;3.28;1.60;;;;;;;;;;5096763;28;20093;-75
2022/07/09 08:02:55;;;;;;;4.72;1.55;;;;;;;;;;5102005;28;20023;-75
2022/07/09 08:05:21;;;;;;;3.78;1.33;;;;;;;;;;5099663;28;20436;-75
2022/07/09 08:07:47;;;;;;;8.38;1.60;;;;;;;;;;5093231;28;20692;-75
2022/07/09 08:10:13;;;;;;;5.43;1.70;;;;;;;;;;5095316;28;20034;-75
2022/07/09 08:12:39;;;;;;;7.68;1.75;;;;;;;;;;5104468;28;20043;-75
2022/07/09 08:15:05;;;;;;;5.95;1.60;;;;;;;;;;5096200;28;20038;-75
2022/07/09 08:17:31;;;;;;;4.43;1.10;;;;;;;;;;5097207;28;20036;-75
2022/07/09 08:19:57;;;;;;;4.32;1.23;;;;;;;;;;5099655;28;20024;-75
2022/07/09 08:22:23;;;;;;;4.55;1.50;;;;;;;;;;5098615;28;20980;-75
2022/07/09 08:24:49;;;;;;;6.32;1.65;;;;;;;;;;5097372;28;20024;-75
2022/07/09 08:27:15;;;;;;;10.70;1.83;;;;;;;;;;5093953;28;20038;-75
2022/07/09 08:29:42;;;;;;;7.50;1.63;;;;;;;;;;5101462;28;20063;-75
2022/07/09 08:32:08;;;;;;;3.70;1.35;;;;;;;;;;5094358;28;20032;-75
2022/07/09 08:34:34;;;;;;;4.30;1.40;;;;;;;;;;5102783;28;20508;-75
2022/07/09 08:37:00;;;;;;;4.20;1.23;;;;;;;;;;5093337;28;20078;-75
2022/07/09 08:39:26;;;;;;;2.80;1.10;;;;;;;;;;5093545;28;20468;-75
2022/07/09 08:41:53;;;;;;;6.18;1.40;;;;;;;;;;5096162;28;20032;-75
2022/07/09 08:44:20;;;;;;;5.43;1.33;;;;;;;;;;5096403;28;20107;-75
2022/07/09 08:46:47;;;;;;;7.07;1.20;;;;;;;;;;5097075;28;20067;-75
2022/07/09 08:49:14;;;;;;;6.47;1.58;;;;;;;;;;5099532;28;20467;-75
2022/07/09 08:51:42;;;;;;;9.55;1.50;;;;;;;;;;5099132;28;20060;-75
2022/07/09 08:54:08;;;;;;;5.57;1.38;;;;;;;;;;5101938;27;20505;-75
2022/07/09 08:56:35;;;;;;;4.85;1.60;;;;;;;;;;5100494;27;20040;-75
2022/07/09 08:59:01;;;;;;;1.80;0.98;;;;;;;;;;5096740;28;20059;-75
2022/07/09 09:01:27;;;;;;;4.65;1.42;;;;;;;;;;5099221;27;20035;-75
2022/07/09 09:03:54;;;;;;;8.77;1.30;;;;;;;;;;5098922;28;20028;-75
2022/07/09 09:06:23;;;;;;;9.73;1.42;;;;;;;;;;5093333;28;20410;-75
2022/07/09 09:08:49;;;;;;;6.13;1.13;;;;;;;;;;5100964;27;20107;-75
2022/07/09 09:11:16;;;;;;;4.22;1.00;;;;;;;;;;5099192;27;20033;-75
2022/07/09 09:13:46;;;;;;;4.35;1.20;;;;;;;;;;5095859;27;20039;-75
2022/07/09 09:16:13;;;;;;;8.35;1.50;;;;;;;;;;5097091;27;20430;-75
2022/07/09 09:18:42;;;;;;;3.72;1.27;;;;;;;;;;5098626;28;20028;-75
2022/07/09 09:21:09;;;;;;;4.53;1.25;;;;;;;;;;5100558;27;20051;-75
2022/07/09 09:23:45;;;;;;;3.88;1.10;;;;;;;;;;5097562;27;20024;-75
2022/07/09 09:26:15;;;;;;;6.38;1.15;;;;;;;;;;5098704;27;20093;-75
2022/07/09 09:28:47;;;;;;;8.90;1.73;;;;;;;;;;5095064;28;20823;-75
2022/07/09 09:31:23;;;;;;;7.07;1.23;;;;;;;;;;5098166;27;20038;-75
2022/07/09 09:33:50;;;;;;;5.18;1.15;;;;;;;;;;5096684;27;20028;-75
2022/07/09 09:36:31;;;;;;;6.68;1.40;;;;;;;;;;5105078;27;20027;-75
2022/07/09 09:39:16;;;;;;;4.28;1.10;;;;;;;;;;5093778;27;20637;-75
2022/07/09 09:41:43;;;;;;;6.70;1.48;;;;;;;;;;5100216;27;20116;-75
2022/07/09 09:44:10;;;;;;;5.35;1.67;;;;;;;;;;5104696;27;20070;-75
2022/07/09 09:46:37;;;;;;;2.95;0.95;;;;;;;;;;5093342;28;20040;-75
2022/07/09 09:49:07;;;;;;;3.97;1.17;;;;;;;;;;5097092;28;20063;-75
2022/07/09 09:51:35;;;;;;;8.95;1.60;;;;;;;;;;5099951;27;20032;-75
2022/07/09 09:54:02;;;;;;;8.88;1.52;;;;;;;;;;5103913;27;20410;-75
2022/07/09 09:56:28;;;;;;;4.05;1.15;;;;;;;;;;5094455;28;20756;-76
2022/07/09 09:58:55;;;;;;;5.88;1.45;;;;;;;;;;5096272;28;20798;-75
2022/07/09 10:01:21;;;;;;;5.75;1.77;;;;;;;;;;5098269;27;20111;-75
2022/07/09 10:03:47;;;;;;;6.15;1.95;;;;;;;;;;5101799;27;20817;-75
2022/07/09 10:06:13;;;;;;;5.75;1.30;;;;;;;;;;5101803;27;20110;-75
2022/07/09 10:08:40;;;;;;;5.13;2.00;;;;;;;;;;5098784;28;20032;-75
2022/07/09 10:11:06;;;;;;;6.47;1.63;;;;;;;;;;5100080;28;20039;-75
2022/07/09 10:13:32;;;;;;;3.95;1.38;;;;;;;;;;5098734;27;20114;-76
2022/07/09 10:15:59;;;;;;;7.30;1.73;;;;;;;;;;5094685;27;20047;-75
2022/07/09 10:18:25;;;;;;;6.95;1.70;;;;;;;;;;5099436;27;20084;-75
2022/07/09 10:20:56;;;;;;;7.68;1.85;;;;;;;;;;5101416;28;20032;-75
2022/07/09 10:23:26;;;;;;;4.72;1.30;;;;;;;;;;5091422;27;20020;-75
2022/07/09 10:25:55;;;;;;;6.47;1.50;;;;;;;;;;5101113;27;20050;-75
2022/07/09 10:28:23;;;;;;;8.65;1.50;;;;;;;;;;5100236;28;20079;-75
2022/07/09 10:30:49;;;;;;;5.68;1.33;;;;;;;;;;5101496;27;20932;-75
2022/07/09 10:33:18;;;;;;;4.07;1.17;;;;;;;;;;5093530;28;20035;-76
2022/07/09 10:35:45;;;;;;;4.60;1.20;;;;;;;;;;5101301;27;20047;-75
2022/07/09 10:38:12;;;;;;;6.38;1.10;;;;;;;;;;5097222;28;20111;-75
2022/07/09 10:40:39;;;;;;;4.35;1.13;;;;;;;;;;5098544;27;20473;-75
2022/07/09 10:43:05;;;;;;;6.63;1.77;;;;;;;;;;5095953;28;20024;-75
2022/07/09 10:45:37;;;;;;;4.88;1.23;;;;;;;;;;5100302;28;20585;-75
2022/07/09 10:48:04;;;;;;;3.10;1.10;;;;;;;;;;5095931;28;20032;-75
2022/07/09 10:50:30;;;;;;;3.60;1.10;;;;;;;;;;5098212;27;20517;-75
2022/07/09 10:52:57;;;;;;;5.15;1.15;;;;;;;;;;5097965;27;20054;-75
2022/07/09 10:55:24;;;;;;;7.32;1.23;;;;;;;;;;5096165;28;20089;-74
2022/07/09 10:57:51;;;;;;;4.57;1.52;;;;;;;;;;5099207;28;20474;-75
2022/07/09 11:00:21;;;;;;;6.13;1.58;;;;;;;;;;5093487;28;20127;-75
2022/07/09 11:02:57;;;;;;;8.07;1.35;;;;;;;;;;5094590;28;20024;-75
2022/07/09 11:05:27;;;;;;;10.98;1.40;;;;;;;;;;5095537;28;20050;-75
2022/07/09 11:08:00;;;;;;;11.10;1.63;;;;;;;;;;5101147;27;21241;-75
2022/07/09 11:10:27;;;;;;;6.95;1.20;;;;;;;;;;5097909;28;20044;-75
2022/07/09 11:12:54;;;;;;;8.27;1.33;;;;;;;;;;5092073;27;20421;-75
2022/07/09 11:15:21;;;;;;;3.40;1.00;;;;;;;;;;5093868;28;20533;-75
2022/07/09 11:17:56;;;;;;;5.55;1.15;;;;;;;;;;5094739;27;20044;-75
2022/07/09 11:20:22;;;;;;;4.82;1.45;;;;;;;;;;5092948;28;20038;-75
2022/07/09 11:22:48;;;;;;;2.53;1.20;;;;;;;;;;5091472;28;20020;-76
2022/07/09 11:25:18;;;;;;;4.15;1.20;;;;;;;;;;5092994;27;20070;-75
2022/07/09 11:27:44;;;;;;;2.80;0.95;;;;;;;;;;5091566;28;20059;-75
2022/07/09 11:30:14;;;;;;;4.95;0.90;;;;;;;;;;5091922;28;20047;-75
2022/07/09 11:32:40;;;;;;;7.03;1.83;;;;;;;;;;5102388;27;20035;-75
2022/07/09 11:35:06;;;;;;;4.60;1.40;;;;;;;;;;5092433;28;20032;-75
2022/07/09 11:37:32;;;;;;;3.63;1.45;;;;;;;;;;5092063;28;20090;-75
2022/07/09 11:39:58;;;;;;;5.68;0.90;;;;;;;;;;5095177;27;20669;-75
2022/07/09 11:42:24;;;;;;;2.95;0.95;;;;;;;;;;5094686;28;20039;-75
2022/07/09 11:44:54;;;;;;;3.17;1.08;;;;;;;;;;5094689;27;20039;-75
2022/07/09 11:47:22;;;;;;;2.75;1.30;;;;;;;;;;5092197;28;20036;-75
2022/07/09 11:49:50;;;;;;;4.55;1.02;;;;;;;;;;5094361;28;20153;-75
2022/07/09 11:52:24;;;;;;;4.75;0.90;;;;;;;;;;5094590;28;20497;-75
2022/07/09 11:55:03;;;;;;;6.07;1.20;;;;;;;;;;5095181;27;20741;-75
2022/07/09 11:57:30;;;;;;;6.78;1.33;;;;;;;;;;5094883;28;20027;-75
2022/07/09 11:59:56;;;;;;;5.20;0.90;;;;;;;;;;5096460;28;20031;-75
2022/07/09 12:02:26;;;;;;;4.30;1.33;;;;;;;;;;5094981;28;20578;-75
2022/07/09 12:04:53;;;;;;;5.07;0.90;;;;;;;;;;5096863;28;20040;-75
2022/07/09 12:07:18;;;;;;;4.05;1.40;;;;;;;;;;5091580;28;20039;-75
2022/07/09 12:09:45;;;;;;;4.32;1.15;;;;;;;;;;5094549;28;20063;-75
2022/07/09 12:12:11;;;;;;;4.10;0.90;;;;;;;;;;5096927;28;20110;-75
2022/07/09 12:14:37;;;;;;;5.95;1.20;;;;;;;;;;5096270;28;20032;-75
2022/07/09 12:17:04;;;;;;;3.60;1.02;;;;;;;;;;5091813;28;20508;-75
2022/07/09 12:19:30;;;;;;;4.75;1.10;;;;;;;;;;5093566;28;20056;-75
2022/07/09 12:21:56;;;;;;;3.92;0.90;;;;;;;;;;5100517;28;20078;-75
2022/07/09 12:24:22;;;;;;;4.78;1.00;;;;;;;;;;5096985;28;20731;-75
2022/07/09 12:26:48;;;;;;;3.38;1.10;;;;;;;;;;5101121;27;20486;-75
2022/07/09 12:29:14;;;;;;;4.68;1.20;;;;;;;;;;5100217;28;20045;-75
2022/07/09 12:31:40;;;;;;;3.72;0.93;;;;;;;;;;5099911;27;20478;-75
2022/07/09 12:34:06;;;;;;;11.07;1.95;;;;;;;;;;5098780;27;20036;-75
2022/07/09 12:36:33;;;;;;;3.33;1.00;;;;;;;;;;5100494;27;20032;-75
2022/07/09 12:38:59;;;;;;;2.42;1.00;;;;;;;;;;5106094;27;20043;-75
2022/07/09 12:41:25;;;;;;;7.85;1.20;;;;;;;;;;5101562;27;20113;-75
2022/07/09 12:43:51;;;;;;;8.07;1.13;;;;;;;;;;5102297;28;20134;-75
2022/07/09 12:46:17;;;;;;;7.53;1.33;;;;;;;;;;5098344;28;20526;-75
2022/07/09 12:48:43;;;;;;;3.95;0.73;;;;;;;;;;5101978;27;20028;-75
2022/07/09 12:51:09;;;;;;;11.45;1.75;;;;;;;;;;5101893;27;20066;-75
2022/07/09 12:53:35;;;;;;;2.78;0.80;;;;;;;;;;5095349;28;20074;-75
2022/07/09 12:56:01;;;;;;;9.35;1.50;;;;;;;;;;5098394;28;20032;-75
2022/07/09 12:58:27;;;;;;;5.70;1.13;;;;;;;;;;5100631;27;20067;-75
2022/07/09 13:00:53;;;;;;;12.57;1.50;;;;;;;;;;5098946;27;20082;-75
2022/07/09 13:03:19;;;;;;;4.07;0.90;;;;;;;;;;5102140;28;20034;-75
2022/07/09 13:05:45;;;;;;;4.40;1.00;;;;;;;;;;5095352;27;20041;-75
2022/07/09 13:08:11;;;;;;;5.28;1.17;;;;;;;;;;5095087;27;20036;-75
2022/07/09 13:10:37;;;;;;;6.40;1.10;;;;;;;;;;5093811;28;20040;-75
2022/07/09 13:13:03;;;;;;;3.83;0.73;;;;;;;;;;5094161;27;20038;-75
2022/07/09 13:15:29;;;;;;;2.97;1.10;;;;;;;;;;5099087;27;20401;-76
2022/07/09 13:17:55;;;;;;;3.83;0.88;;;;;;;;;;5091239;27;20040;-76
2022/07/09 13:20:21;;;;;;;3.67;0.93;;;;;;;;;;5095814;27;20100;-76
2022/07/09 13:22:47;;;;;;;3.55;1.00;;;;;;;;;;5087977;27;20139;-76
2022/07/09 13:25:13;;;;;;;6.65;1.30;;;;;;;;;;5093082;28;20042;-76
2022/07/09 13:27:40;;;;;;;16.35;1.27;;;;;;;;;;5091792;27;21880;-76
2022/07/09 13:30:06;;;;;;;8.23;0.93;;;;;;;;;;5092514;27;20030;-76
2022/07/09 13:32:32;;;;;;;12.93;1.23;;;;;;;;;;5093591;28;20032;-76
2022/07/09 13:34:58;;;;;;;6.97;1.17;;;;;;;;;;5089769;27;20043;-76
2022/07/09 13:37:24;;;;;;;8.25;0.90;;;;;;;;;;5100791;27;20023;-76
2022/07/09 13:39:52;;;;;;;5.97;1.10;;;;;;;;;;5096154;27;20028;-76
2022/07/09 13:42:18;;;;;;;4.10;0.90;;;;;;;;;;5093855;27;20023;-76
2022/07/09 13:44:44;;;;;;;4.50;0.80;;;;;;;;;;5097591;27;20053;-76
2022/07/09 13:47:10;;;;;;;7.07;1.10;;;;;;;;;;5092700;28;20039;-76
2022/07/09 13:49:36;;;;;;;4.82;1.08;;;;;;;;;;5098842;27;20490;-76
2022/07/09 13:52:02;;;;;;;4.13;0.75;;;;;;;;;;5100063;27;20475;-76
2022/07/09 13:54:28;;;;;;;7.22;1.20;;;;;;;;;;5094751;28;20875;-76
2022/07/09 13:56:55;;;;;;;5.93;1.00;;;;;;;;;;5092402;28;20043;-76
2022/07/09 13:59:21;;;;;;;3.53;0.73;;;;;;;;;;5094642;27;20032;-76
2022/07/09 14:01:47;;;;;;;3.90;0.70;;;;;;;;;;5094347;28;20070;-76
2022/07/09 14:04:14;;;;;;;9.40;0.80;;;;;;;;;;5078865;28;20055;-76
2022/07/09 14:06:40;;;;;;;4.22;1.00;;;;;;;;;;5092512;27;20027;-76
2022/07/09 14:09:06;;;;;;;2.47;0.77;;;;;;;;;;5093360;27;20035;-76
2022/07/09 14:11:32;;;;;;;2.95;0.80;;;;;;;;;;5092772;28;20032;-76
2022/07/09 14:13:58;;;;;;;3.00;0.75;;;;;;;;;;5094963;28;20031;-76
2022/07/09 14:16:25;;;;;;;8.30;1.10;;;;;;;;;;5093235;28;20055;-76
2022/07/09 14:18:51;;;;;;;5.22;0.90;;;;;;;;;;5098394;27;20066;-76
2022/07/09 14:21:17;;;;;;;7.25;0.95;;;;;;;;;;5091761;27;20039;-76
2022/07/09 14:23:47;;;;;;;2.78;0.70;;;;;;;;;;5093708;27;20027;-76
2022/07/09 14:26:14;;;;;;;3.25;0.80;;;;;;;;;;5092218;28;20069;-76
2022/07/09 14:28:40;;;;;;;4.85;0.73;;;;;;;;;;5098980;28;20020;-76
2022/07/09 14:31:06;;;;;;;2.78;0.75;;;;;;;;;;5095043;28;20028;-76
2022/07/09 14:33:32;;;;;;;3.88;1.10;;;;;;;;;;5095141;28;20027;-76
2022/07/09 14:35:58;;;;;;;6.50;1.00;;;;;;;;;;5100384;27;20037;-76
2022/07/09 14:38:24;;;;;;;2.70;0.75;;;;;;;;;;5095010;27;20028;-76